sensor_id;sensor_type;location;lat;lon;timestamp;temperature;humidity
30473;DHT22;17263;48.160;11.452;2023-08-12T00:00:32;18.50;99.90
30473;DHT22;17263;48.160;11.452;2023-08-12T00:02:58;18.50;99.90
30473;DHT22;17263;48.160;11.452;2023-08-12T00:05:24;18.40;99.90
30473;DHT22;17263;48.160;11.452;2023-08-12T00:07:50;18.40;99.90
30473;DHT22;17263;48.160;11.452;2023-08-12T00:10:16;18.30;99.90
30473;DHT22;17263;48.160;11.452;2023-08-12T00:12:42;18.30;99.90
30473;DHT22;17263;48.160;11.452;2023-08-12T00:15:09;18.30;99.90
30473;DHT22;17263;48.160;11.452;2023-08-12T00:17:36;18.20;99.90
30473;DHT22;17263;48.160;11.452;2023-08-12T00:20:04;18.20;99.90
30473;DHT22;17263;48.160;11.452;2023-08-12T00:22:36;18.20;99.90
30473;DHT22;17263;48.160;11.452;2023-08-12T00:25:02;18.10;99.90
30473;DHT22;17263;48.160;11.452;2023-08-12T00:27:28;18.10;99.90
30473;DHT22;17263;48.160;11.452;2023-08-12T00:29:54;18.00;99.90
30473;DHT22;17263;48.160;11.452;2023-08-12T00:32:20;18.00;99.90
30473;DHT22;17263;48.160;11.452;2023-08-12T00:34:46;18.00;99.90
30473;DHT22;17263;48.160;11.452;2023-08-12T00:37:13;18.00;99.90
30473;DHT22;17263;48.160;11.452;2023-08-12T00:39:39;17.90;99.90
30473;DHT22;17263;48.160;11.452;2023-08-12T00:42:05;18.00;99.90
30473;DHT22;17263;48.160;11.452;2023-08-12T00:44:31;17.90;99.90
30473;DHT22;17263;48.160;11.452;2023-08-12T00:46:57;17.90;99.90
30473;DHT22;17263;48.160;11.452;2023-08-12T00:49:23;17.80;99.90
30473;DHT22;17263;48.160;11.452;2023-08-12T00:51:50;17.80;99.90
30473;DHT22;17263;48.160;11.452;2023-08-12T00:54:19;17.80;99.90
30473;DHT22;17263;48.160;11.452;2023-08-12T00:56:49;17.80;99.90
30473;DHT22;17263;48.160;11.452;2023-08-12T00:59:16;17.70;99.90
30473;DHT22;17263;48.160;11.452;2023-08-12T01:01:43;17.70;99.90
30473;DHT22;17263;48.160;11.452;2023-08-12T01:04:10;17.60;99.90
30473;DHT22;17263;48.160;11.452;2023-08-12T01:06:36;17.70;99.90
30473;DHT22;17263;48.160;11.452;2023-08-12T01:09:03;17.60;99.90
30473;DHT22;17263;48.160;11.452;2023-08-12T01:11:39;17.60;99.90
30473;DHT22;17263;48.160;11.452;2023-08-12T01:14:25;17.50;99.90
30473;DHT22;17263;48.160;11.452;2023-08-12T01:16:58;17.60;99.90
30473;DHT22;17263;48.160;11.452;2023-08-12T01:19:36;17.50;99.90
30473;DHT22;17263;48.160;11.452;2023-08-12T01:22:05;17.50;99.90
30473;DHT22;17263;48.160;11.452;2023-08-12T01:24:40;17.50;99.90
30473;DHT22;17263;48.160;11.452;2023-08-12T01:27:07;17.40;99.90
30473;DHT22;17263;48.160;11.452;2023-08-12T01:29:36;17.50;99.90
30473;DHT22;17263;48.160;11.452;2023-08-12T01:34:53;17.40;99.90
30473;DHT22;17263;48.160;11.452;2023-08-12T01:37:26;17.30;99.90
30473;DHT22;17263;48.160;11.452;2023-08-12T01:39:54;17.30;99.90
30473;DHT22;17263;48.160;11.452;2023-08-12T01:42:21;17.30;99.90
30473;DHT22;17263;48.160;11.452;2023-08-12T01:44:48;17.30;99.90
30473;DHT22;17263;48.160;11.452;2023-08-12T01:47:15;17.20;99.90
30473;DHT22;17263;48.160;11.452;2023-08-12T01:49:41;17.20;99.90
30473;DHT22;17263;48.160;11.452;2023-08-12T01:52:07;17.10;99.90
30473;DHT22;17263;48.160;11.452;2023-08-12T01:54:34;17.10;99.90
30473;DHT22;17263;48.160;11.452;2023-08-12T01:57:02;17.10;99.90
30473;DHT22;17263;48.160;11.452;2023-08-12T01:59:35;17.00;99.90
30473;DHT22;17263;48.160;11.452;2023-08-12T02:02:01;17.10;99.90
30473;DHT22;17263;48.160;11.452;2023-08-12T02:04:28;17.10;99.90
30473;DHT22;17263;48.160;11.452;2023-08-12T02:06:54;17.00;99.90
30473;DHT22;17263;48.160;11.452;2023-08-12T02:09:21;17.00;99.90
30473;DHT22;17263;48.160;11.452;2023-08-12T02:11:49;17.10;99.90
30473;DHT22;17263;48.160;11.452;2023-08-12T02:14:16;17.00;99.90
30473;DHT22;17263;48.160;11.452;2023-08-12T02:16:42;17.00;99.90
30473;DHT22;17263;48.160;11.452;2023-08-12T02:19:08;17.00;99.90
30473;DHT22;17263;48.160;11.452;2023-08-12T02:21:34;16.90;99.90
30473;DHT22;17263;48.160;11.452;2023-08-12T02:24:00;16.80;99.90
30473;DHT22;17263;48.160;11.452;2023-08-12T02:26:26;16.80;99.90
30473;DHT22;17263;48.160;11.452;2023-08-12T02:28:52;16.70;99.90
30473;DHT22;17263;48.160;11.452;2023-08-12T02:31:18;16.70;99.90
30473;DHT22;17263;48.160;11.452;2023-08-12T02:33:44;16.70;99.90
30473;DHT22;17263;48.160;11.452;2023-08-12T02:36:10;16.70;99.90
30473;DHT22;17263;48.160;11.452;2023-08-12T02:38:36;16.70;99.90
30473;DHT22;17263;48.160;11.452;2023-08-12T02:41:02;16.70;99.90
30473;DHT22;17263;48.160;11.452;2023-08-12T02:43:28;16.70;99.90
30473;DHT22;17263;48.160;11.452;2023-08-12T02:45:54;16.70;99.90
30473;DHT22;17263;48.160;11.452;2023-08-12T02:48:21;16.70;99.90
30473;DHT22;17263;48.160;11.452;2023-08-12T02:50:47;16.70;99.90
30473;DHT22;17263;48.160;11.452;2023-08-12T02:53:14;16.70;99.90
30473;DHT22;17263;48.160;11.452;2023-08-12T02:55:40;16.60;99.90
30473;DHT22;17263;48.160;11.452;2023-08-12T02:58:07;16.60;99.90
30473;DHT22;17263;48.160;11.452;2023-08-12T03:00:33;16.60;99.90
30473;DHT22;17263;48.160;11.452;2023-08-12T03:02:59;16.50;99.90
30473;DHT22;17263;48.160;11.452;2023-08-12T03:05:25;16.60;99.90
30473;DHT22;17263;48.160;11.452;2023-08-12T03:07:51;16.50;99.90
30473;DHT22;17263;48.160;11.452;2023-08-12T03:10:19;16.50;99.90
30473;DHT22;17263;48.160;11.452;2023-08-12T03:12:45;16.50;99.90
30473;DHT22;17263;48.160;11.452;2023-08-12T03:15:11;16.50;99.90
30473;DHT22;17263;48.160;11.452;2023-08-12T03:17:37;16.50;99.90
30473;DHT22;17263;48.160;11.452;2023-08-12T03:20:07;16.50;99.90
30473;DHT22;17263;48.160;11.452;2023-08-12T03:22:36;16.40;99.90
30473;DHT22;17263;48.160;11.452;2023-08-12T03:25:03;16.30;99.90
30473;DHT22;17263;48.160;11.452;2023-08-12T03:27:29;16.30;99.90
30473;DHT22;17263;48.160;11.452;2023-08-12T03:29:55;16.30;99.90
30473;DHT22;17263;48.160;11.452;2023-08-12T03:32:21;16.20;99.90
30473;DHT22;17263;48.160;11.452;2023-08-12T03:34:47;16.20;99.90
30473;DHT22;17263;48.160;11.452;2023-08-12T03:37:14;16.20;99.90
30473;DHT22;17263;48.160;11.452;2023-08-12T03:39:40;16.20;99.90
30473;DHT22;17263;48.160;11.452;2023-08-12T03:42:06;16.10;99.90
30473;DHT22;17263;48.160;11.452;2023-08-12T03:44:32;16.10;99.90
30473;DHT22;17263;48.160;11.452;2023-08-12T03:46:58;16.20;99.90
30473;DHT22;17263;48.160;11.452;2023-08-12T03:49:24;16.10;99.90
30473;DHT22;17263;48.160;11.452;2023-08-12T03:51:50;16.20;99.90
30473;DHT22;17263;48.160;11.452;2023-08-12T03:54:16;16.10;99.90
30473;DHT22;17263;48.160;11.452;2023-08-12T03:56:42;16.10;99.90
30473;DHT22;17263;48.160;11.452;2023-08-12T03:59:08;16.10;99.90
30473;DHT22;17263;48.160;11.452;2023-08-12T04:01:34;16.10;99.90
30473;DHT22;17263;48.160;11.452;2023-08-12T04:04:00;16.00;99.90
30473;DHT22;17263;48.160;11.452;2023-08-12T04:06:26;16.00;99.90
30473;DHT22;17263;48.160;11.452;2023-08-12T04:08:52;16.10;99.90
30473;DHT22;17263;48.160;11.452;2023-08-12T04:11:18;16.00;99.90
30473;DHT22;17263;48.160;11.452;2023-08-12T04:13:44;16.00;99.90
30473;DHT22;17263;48.160;11.452;2023-08-12T04:16:10;16.00;99.90
30473;DHT22;17263;48.160;11.452;2023-08-12T04:18:36;16.00;99.90
30473;DHT22;17263;48.160;11.452;2023-08-12T04:21:02;16.00;99.90
30473;DHT22;17263;48.160;11.452;2023-08-12T04:23:28;16.00;99.90
30473;DHT22;17263;48.160;11.452;2023-08-12T04:25:54;16.00;99.90
30473;DHT22;17263;48.160;11.452;2023-08-12T04:28:21;16.10;99.90
30473;DHT22;17263;48.160;11.452;2023-08-12T04:30:48;16.10;99.90
30473;DHT22;17263;48.160;11.452;2023-08-12T04:33:16;16.00;99.90
30473;DHT22;17263;48.160;11.452;2023-08-12T04:35:42;16.10;99.90
30473;DHT22;17263;48.160;11.452;2023-08-12T04:38:09;16.10;99.90
30473;DHT22;17263;48.160;11.452;2023-08-12T04:40:38;16.20;99.90
30473;DHT22;17263;48.160;11.452;2023-08-12T04:43:04;16.20;99.90
30473;DHT22;17263;48.160;11.452;2023-08-12T04:45:30;16.30;99.90
30473;DHT22;17263;48.160;11.452;2023-08-12T04:47:57;16.40;99.90
30473;DHT22;17263;48.160;11.452;2023-08-12T04:50:23;16.60;99.90
30473;DHT22;17263;48.160;11.452;2023-08-12T04:52:49;16.80;99.90
30473;DHT22;17263;48.160;11.452;2023-08-12T04:55:15;17.10;99.90
30473;DHT22;17263;48.160;11.452;2023-08-12T04:57:41;17.70;99.90
30473;DHT22;17263;48.160;11.452;2023-08-12T05:00:07;18.40;99.90
30473;DHT22;17263;48.160;11.452;2023-08-12T05:02:34;19.20;99.90
30473;DHT22;17263;48.160;11.452;2023-08-12T05:05:00;20.00;99.90
30473;DHT22;17263;48.160;11.452;2023-08-12T05:07:27;20.70;99.90
30473;DHT22;17263;48.160;11.452;2023-08-12T05:09:53;21.30;99.90
30473;DHT22;17263;48.160;11.452;2023-08-12T05:12:19;21.90;99.90
30473;DHT22;17263;48.160;11.452;2023-08-12T05:14:45;22.20;99.90
30473;DHT22;17263;48.160;11.452;2023-08-12T05:17:11;22.60;99.90
30473;DHT22;17263;48.160;11.452;2023-08-12T05:19:37;22.70;99.90
30473;DHT22;17263;48.160;11.452;2023-08-12T05:22:03;22.70;99.90
30473;DHT22;17263;48.160;11.452;2023-08-12T05:24:29;23.00;99.90
30473;DHT22;17263;48.160;11.452;2023-08-12T05:26:55;23.10;99.90
30473;DHT22;17263;48.160;11.452;2023-08-12T05:29:21;23.10;99.90
30473;DHT22;17263;48.160;11.452;2023-08-12T05:31:47;22.90;99.90
30473;DHT22;17263;48.160;11.452;2023-08-12T05:34:13;23.10;99.90
30473;DHT22;17263;48.160;11.452;2023-08-12T05:36:40;23.50;99.90
30473;DHT22;17263;48.160;11.452;2023-08-12T05:39:06;24.00;99.90
30473;DHT22;17263;48.160;11.452;2023-08-12T05:41:32;24.60;99.90
30473;DHT22;17263;48.160;11.452;2023-08-12T05:43:58;25.20;99.90
30473;DHT22;17263;48.160;11.452;2023-08-12T05:46:24;26.00;99.90
30473;DHT22;17263;48.160;11.452;2023-08-12T05:48:50;26.40;99.90
30473;DHT22;17263;48.160;11.452;2023-08-12T05:51:16;26.70;99.90
30473;DHT22;17263;48.160;11.452;2023-08-12T05:53:42;27.10;99.90
30473;DHT22;17263;48.160;11.452;2023-08-12T05:56:08;27.60;99.90
30473;DHT22;17263;48.160;11.452;2023-08-12T05:58:34;28.00;99.90
30473;DHT22;17263;48.160;11.452;2023-08-12T06:01:00;28.50;99.90
30473;DHT22;17263;48.160;11.452;2023-08-12T06:03:26;29.20;99.90
30473;DHT22;17263;48.160;11.452;2023-08-12T06:05:52;29.50;99.90
30473;DHT22;17263;48.160;11.452;2023-08-12T06:08:18;29.40;99.90
30473;DHT22;17263;48.160;11.452;2023-08-12T06:10:44;29.50;99.90
30473;DHT22;17263;48.160;11.452;2023-08-12T06:13:10;29.50;99.90
30473;DHT22;17263;48.160;11.452;2023-08-12T06:15:36;29.30;99.90
30473;DHT22;17263;48.160;11.452;2023-08-12T06:18:02;29.50;99.90
30473;DHT22;17263;48.160;11.452;2023-08-12T06:20:29;29.90;99.70
30473;DHT22;17263;48.160;11.452;2023-08-12T06:22:55;29.50;98.50
30473;DHT22;17263;48.160;11.452;2023-08-12T06:25:21;28.80;99.10
30473;DHT22;17263;48.160;11.452;2023-08-12T06:27:47;29.00;99.90
30473;DHT22;17263;48.160;11.452;2023-08-12T06:30:14;29.50;99.90
30473;DHT22;17263;48.160;11.452;2023-08-12T06:32:40;29.90;99.10
30473;DHT22;17263;48.160;11.452;2023-08-12T06:35:07;30.20;98.30
30473;DHT22;17263;48.160;11.452;2023-08-12T06:37:33;29.80;98.10
30473;DHT22;17263;48.160;11.452;2023-08-12T06:39:59;28.90;98.30
30473;DHT22;17263;48.160;11.452;2023-08-12T06:42:25;28.00;99.20
30473;DHT22;17263;48.160;11.452;2023-08-12T06:44:55;27.10;99.90
30473;DHT22;17263;48.160;11.452;2023-08-12T06:47:22;26.80;99.90
30473;DHT22;17263;48.160;11.452;2023-08-12T06:49:48;27.30;99.90
30473;DHT22;17263;48.160;11.452;2023-08-12T06:52:14;28.00;99.90
30473;DHT22;17263;48.160;11.452;2023-08-12T06:54:42;28.80;99.90
30473;DHT22;17263;48.160;11.452;2023-08-12T06:57:08;29.50;99.30
30473;DHT22;17263;48.160;11.452;2023-08-12T06:59:34;30.10;98.80
30473;DHT22;17263;48.160;11.452;2023-08-12T07:02:00;30.70;97.70
30473;DHT22;17263;48.160;11.452;2023-08-12T07:04:26;31.00;96.40
30473;DHT22;17263;48.160;11.452;2023-08-12T07:06:52;31.20;95.30
30473;DHT22;17263;48.160;11.452;2023-08-12T07:09:18;31.30;95.10
30473;DHT22;17263;48.160;11.452;2023-08-12T07:11:45;31.70;94.70
30473;DHT22;17263;48.160;11.452;2023-08-12T07:14:11;32.10;93.90
30473;DHT22;17263;48.160;11.452;2023-08-12T07:16:37;32.40;93.10
30473;DHT22;17263;48.160;11.452;2023-08-12T07:19:03;32.50;92.00
30473;DHT22;17263;48.160;11.452;2023-08-12T07:21:29;32.50;91.70
30473;DHT22;17263;48.160;11.452;2023-08-12T07:23:55;32.40;91.50
30473;DHT22;17263;48.160;11.452;2023-08-12T07:26:21;32.40;91.40
30473;DHT22;17263;48.160;11.452;2023-08-12T07:28:47;32.60;91.30
30473;DHT22;17263;48.160;11.452;2023-08-12T07:31:13;32.70;90.70
30473;DHT22;17263;48.160;11.452;2023-08-12T07:33:39;32.90;90.60
30473;DHT22;17263;48.160;11.452;2023-08-12T07:36:05;32.80;90.50
30473;DHT22;17263;48.160;11.452;2023-08-12T07:38:31;32.80;90.30
30473;DHT22;17263;48.160;11.452;2023-08-12T07:40:57;32.90;89.50
30473;DHT22;17263;48.160;11.452;2023-08-12T07:43:23;33.00;89.20
30473;DHT22;17263;48.160;11.452;2023-08-12T07:45:53;33.20;89.90
30473;DHT22;17263;48.160;11.452;2023-08-12T07:48:20;33.50;88.60
30473;DHT22;17263;48.160;11.452;2023-08-12T07:50:46;33.10;88.00
30473;DHT22;17263;48.160;11.452;2023-08-12T07:53:15;32.80;88.90
30473;DHT22;17263;48.160;11.452;2023-08-12T07:55:42;32.30;89.90
30473;DHT22;17263;48.160;11.452;2023-08-12T07:58:09;31.80;90.60
30473;DHT22;17263;48.160;11.452;2023-08-12T08:00:35;31.50;90.80
30473;DHT22;17263;48.160;11.452;2023-08-12T08:03:01;31.20;91.70
30473;DHT22;17263;48.160;11.452;2023-08-12T08:05:27;30.90;92.20
30473;DHT22;17263;48.160;11.452;2023-08-12T08:07:53;31.10;92.30
30473;DHT22;17263;48.160;11.452;2023-08-12T08:10:19;31.30;92.10
30473;DHT22;17263;48.160;11.452;2023-08-12T08:12:45;31.60;92.00
30473;DHT22;17263;48.160;11.452;2023-08-12T08:15:11;31.70;91.10
30473;DHT22;17263;48.160;11.452;2023-08-12T08:17:37;31.70;91.20
30473;DHT22;17263;48.160;11.452;2023-08-12T08:20:03;31.70;90.10
30473;DHT22;17263;48.160;11.452;2023-08-12T08:22:31;31.40;91.20
30473;DHT22;17263;48.160;11.452;2023-08-12T08:24:57;31.00;91.70
30473;DHT22;17263;48.160;11.452;2023-08-12T08:27:24;30.60;92.70
30473;DHT22;17263;48.160;11.452;2023-08-12T08:29:50;30.20;92.80
30473;DHT22;17263;48.160;11.452;2023-08-12T08:32:16;30.00;94.00
30473;DHT22;17263;48.160;11.452;2023-08-12T08:34:42;30.00;94.70
30473;DHT22;17263;48.160;11.452;2023-08-12T08:37:08;30.20;94.40
30473;DHT22;17263;48.160;11.452;2023-08-12T08:39:34;30.30;94.30
30473;DHT22;17263;48.160;11.452;2023-08-12T08:42:01;30.30;93.70
30473;DHT22;17263;48.160;11.452;2023-08-12T08:44:29;30.20;94.40
30473;DHT22;17263;48.160;11.452;2023-08-12T08:46:59;30.00;94.70
30473;DHT22;17263;48.160;11.452;2023-08-12T08:49:25;29.70;95.10
30473;DHT22;17263;48.160;11.452;2023-08-12T08:51:52;29.50;95.90
30473;DHT22;17263;48.160;11.452;2023-08-12T08:54:21;29.20;96.30
30473;DHT22;17263;48.160;11.452;2023-08-12T08:56:49;29.10;96.50
30473;DHT22;17263;48.160;11.452;2023-08-12T08:59:15;28.80;96.90
30473;DHT22;17263;48.160;11.452;2023-08-12T09:01:42;28.70;97.70
30473;DHT22;17263;48.160;11.452;2023-08-12T09:04:09;28.50;98.00
30473;DHT22;17263;48.160;11.452;2023-08-12T09:06:36;28.40;98.40
30473;DHT22;17263;48.160;11.452;2023-08-12T09:09:07;28.20;98.90
30473;DHT22;17263;48.160;11.452;2023-08-12T09:11:38;28.10;99.90
30473;DHT22;17263;48.160;11.452;2023-08-12T09:14:05;28.10;99.70
30473;DHT22;17263;48.160;11.452;2023-08-12T09:16:31;28.00;99.90
30473;DHT22;17263;48.160;11.452;2023-08-12T09:18:58;27.90;99.90
30473;DHT22;17263;48.160;11.452;2023-08-12T09:21:24;27.90;99.90
30473;DHT22;17263;48.160;11.452;2023-08-12T09:23:50;28.00;99.90
30473;DHT22;17263;48.160;11.452;2023-08-12T09:26:18;28.10;99.90
30473;DHT22;17263;48.160;11.452;2023-08-12T09:28:45;28.50;99.90
30473;DHT22;17263;48.160;11.452;2023-08-12T09:31:28;28.90;99.90
30473;DHT22;17263;48.160;11.452;2023-08-12T09:33:59;29.60;99.60
30473;DHT22;17263;48.160;11.452;2023-08-12T09:36:27;29.90;98.80
30473;DHT22;17263;48.160;11.452;2023-08-12T09:38:53;30.00;97.70
30473;DHT22;17263;48.160;11.452;2023-08-12T09:41:22;29.90;97.90
30473;DHT22;17263;48.160;11.452;2023-08-12T09:43:51;29.70;98.10
30473;DHT22;17263;48.160;11.452;2023-08-12T09:46:17;29.50;98.50
30473;DHT22;17263;48.160;11.452;2023-08-12T09:48:43;29.30;98.80
30473;DHT22;17263;48.160;11.452;2023-08-12T09:51:09;29.10;98.70
30473;DHT22;17263;48.160;11.452;2023-08-12T09:53:36;28.80;98.60
30473;DHT22;17263;48.160;11.452;2023-08-12T09:56:06;28.60;98.60
30473;DHT22;17263;48.160;11.452;2023-08-12T09:58:35;28.50;98.70
30473;DHT22;17263;48.160;11.452;2023-08-12T10:01:03;28.50;99.30
30473;DHT22;17263;48.160;11.452;2023-08-12T10:03:32;28.70;99.60
30473;DHT22;17263;48.160;11.452;2023-08-12T10:06:00;29.10;99.40
30473;DHT22;17263;48.160;11.452;2023-08-12T10:08:27;29.60;98.20
30473;DHT22;17263;48.160;11.452;2023-08-12T10:10:54;29.90;97.20
30473;DHT22;17263;48.160;11.452;2023-08-12T10:13:24;30.20;96.40
30473;DHT22;17263;48.160;11.452;2023-08-12T10:15:50;30.40;94.60
30473;DHT22;17263;48.160;11.452;2023-08-12T10:18:18;30.30;94.80
30473;DHT22;17263;48.160;11.452;2023-08-12T10:20:44;30.20;94.50
30473;DHT22;17263;48.160;11.452;2023-08-12T10:23:15;29.90;95.40
30473;DHT22;17263;48.160;11.452;2023-08-12T10:25:43;29.80;96.10
30473;DHT22;17263;48.160;11.452;2023-08-12T10:28:10;29.70;96.30
30473;DHT22;17263;48.160;11.452;2023-08-12T10:30:37;29.90;95.90
30473;DHT22;17263;48.160;11.452;2023-08-12T10:33:04;30.20;94.70
30473;DHT22;17263;48.160;11.452;2023-08-12T10:35:45;30.30;95.00
30473;DHT22;17263;48.160;11.452;2023-08-12T10:38:13;30.50;93.40
30473;DHT22;17263;48.160;11.452;2023-08-12T10:40:40;30.30;93.10
30473;DHT22;17263;48.160;11.452;2023-08-12T10:43:06;30.20;93.30
30473;DHT22;17263;48.160;11.452;2023-08-12T10:45:51;30.00;93.20
30473;DHT22;17263;48.160;11.452;2023-08-12T10:48:21;29.90;93.60
30473;DHT22;17263;48.160;11.452;2023-08-12T10:50:59;29.70;94.20
30473;DHT22;17263;48.160;11.452;2023-08-12T10:53:27;29.70;94.40
30473;DHT22;17263;48.160;11.452;2023-08-12T10:56:03;29.80;94.20
30473;DHT22;17263;48.160;11.452;2023-08-12T10:58:54;29.80;94.10
30473;DHT22;17263;48.160;11.452;2023-08-12T11:01:19;29.80;94.30
30473;DHT22;17263;48.160;11.452;2023-08-12T11:03:47;29.60;94.60
30473;DHT22;17263;48.160;11.452;2023-08-12T11:06:14;29.50;94.60
30473;DHT22;17263;48.160;11.452;2023-08-12T11:08:47;29.40;94.60
30473;DHT22;17263;48.160;11.452;2023-08-12T11:11:19;29.30;93.90
30473;DHT22;17263;48.160;11.452;2023-08-12T11:13:59;29.10;94.70
30473;DHT22;17263;48.160;11.452;2023-08-12T11:16:36;28.90;95.00
30473;DHT22;17263;48.160;11.452;2023-08-12T11:19:03;28.70;95.50
30473;DHT22;17263;48.160;11.452;2023-08-12T11:21:29;28.70;95.60
30473;DHT22;17263;48.160;11.452;2023-08-12T11:23:55;28.50;95.90
30473;DHT22;17263;48.160;11.452;2023-08-12T11:26:23;28.30;96.20
30473;DHT22;17263;48.160;11.452;2023-08-12T11:28:49;28.30;96.30
30473;DHT22;17263;48.160;11.452;2023-08-12T11:31:16;28.50;96.80
30473;DHT22;17263;48.160;11.452;2023-08-12T11:33:43;28.60;96.80
30473;DHT22;17263;48.160;11.452;2023-08-12T11:36:10;28.70;96.10
30473;DHT22;17263;48.160;11.452;2023-08-12T11:38:37;28.80;95.40
30473;DHT22;17263;48.160;11.452;2023-08-12T11:41:03;28.80;95.80
30473;DHT22;17263;48.160;11.452;2023-08-12T11:43:31;28.80;96.00
30473;DHT22;17263;48.160;11.452;2023-08-12T11:45:58;28.90;95.70
30473;DHT22;17263;48.160;11.452;2023-08-12T11:48:27;28.90;95.60
30473;DHT22;17263;48.160;11.452;2023-08-12T11:50:53;28.90;95.80
30473;DHT22;17263;48.160;11.452;2023-08-12T11:53:20;28.90;96.10
30473;DHT22;17263;48.160;11.452;2023-08-12T11:55:46;29.00;95.60
30473;DHT22;17263;48.160;11.452;2023-08-12T11:58:14;29.00;94.70
30473;DHT22;17263;48.160;11.452;2023-08-12T12:00:46;29.00;95.00
30473;DHT22;17263;48.160;11.452;2023-08-12T12:03:12;28.90;95.20
30473;DHT22;17263;48.160;11.452;2023-08-12T12:05:38;28.90;95.60
30473;DHT22;17263;48.160;11.452;2023-08-12T12:08:05;28.80;94.70
30473;DHT22;17263;48.160;11.452;2023-08-12T12:10:34;28.90;95.00
30473;DHT22;17263;48.160;11.452;2023-08-12T12:13:03;29.10;95.40
30473;DHT22;17263;48.160;11.452;2023-08-12T12:15:30;29.30;96.10
30473;DHT22;17263;48.160;11.452;2023-08-12T12:17:56;29.50;95.40
30473;DHT22;17263;48.160;11.452;2023-08-12T12:20:22;29.50;95.20
30473;DHT22;17263;48.160;11.452;2023-08-12T12:22:49;29.70;94.40
30473;DHT22;17263;48.160;11.452;2023-08-12T12:25:16;29.60;93.30
30473;DHT22;17263;48.160;11.452;2023-08-12T12:27:45;29.60;93.80
30473;DHT22;17263;48.160;11.452;2023-08-12T12:30:13;29.40;94.50
30473;DHT22;17263;48.160;11.452;2023-08-12T12:32:39;29.30;94.50
30473;DHT22;17263;48.160;11.452;2023-08-12T12:35:06;29.40;94.50
30473;DHT22;17263;48.160;11.452;2023-08-12T12:37:35;29.30;93.90
30473;DHT22;17263;48.160;11.452;2023-08-12T12:40:02;29.30;94.00
30473;DHT22;17263;48.160;11.452;2023-08-12T12:42:29;29.40;93.40
30473;DHT22;17263;48.160;11.452;2023-08-12T12:44:55;29.70;92.40
30473;DHT22;17263;48.160;11.452;2023-08-12T12:47:21;29.70;92.80
30473;DHT22;17263;48.160;11.452;2023-08-12T12:49:47;29.70;92.60
30473;DHT22;17263;48.160;11.452;2023-08-12T12:52:13;29.60;92.70
30473;DHT22;17263;48.160;11.452;2023-08-12T12:54:39;29.50;93.50
30473;DHT22;17263;48.160;11.452;2023-08-12T12:57:05;29.40;92.50
30473;DHT22;17263;48.160;11.452;2023-08-12T12:59:31;29.30;92.40
30473;DHT22;17263;48.160;11.452;2023-08-12T13:01:57;29.30;92.30
30473;DHT22;17263;48.160;11.452;2023-08-12T13:04:23;29.30;92.80
30473;DHT22;17263;48.160;11.452;2023-08-12T13:06:50;29.50;92.00
30473;DHT22;17263;48.160;11.452;2023-08-12T13:09:16;29.60;92.10
30473;DHT22;17263;48.160;11.452;2023-08-12T13:11:42;29.90;92.20
30473;DHT22;17263;48.160;11.452;2023-08-12T13:14:08;29.80;92.40
30473;DHT22;17263;48.160;11.452;2023-08-12T13:16:34;29.80;92.00
30473;DHT22;17263;48.160;11.452;2023-08-12T13:19:00;29.90;92.00
30473;DHT22;17263;48.160;11.452;2023-08-12T13:21:29;29.90;91.90
30473;DHT22;17263;48.160;11.452;2023-08-12T13:23:55;29.90;92.10
30473;DHT22;17263;48.160;11.452;2023-08-12T13:26:21;29.90;92.60
30473;DHT22;17263;48.160;11.452;2023-08-12T13:28:47;29.90;93.00
30473;DHT22;17263;48.160;11.452;2023-08-12T13:31:14;29.90;92.80
30473;DHT22;17263;48.160;11.452;2023-08-12T13:33:40;29.90;92.10
30473;DHT22;17263;48.160;11.452;2023-08-12T13:36:06;29.90;91.80
30473;DHT22;17263;48.160;11.452;2023-08-12T13:38:32;30.10;90.60
30473;DHT22;17263;48.160;11.452;2023-08-12T13:40:58;30.20;90.70
30473;DHT22;17263;48.160;11.452;2023-08-12T13:43:25;30.20;90.10
30473;DHT22;17263;48.160;11.452;2023-08-12T13:45:51;30.20;90.60
30473;DHT22;17263;48.160;11.452;2023-08-12T13:48:17;30.30;90.60
30473;DHT22;17263;48.160;11.452;2023-08-12T13:50:43;30.40;90.40
30473;DHT22;17263;48.160;11.452;2023-08-12T13:53:09;30.40;90.60
30473;DHT22;17263;48.160;11.452;2023-08-12T13:55:35;30.20;91.20
30473;DHT22;17263;48.160;11.452;2023-08-12T13:58:01;30.00;91.70
30473;DHT22;17263;48.160;11.452;2023-08-12T14:00:27;30.10;91.90
30473;DHT22;17263;48.160;11.452;2023-08-12T14:02:53;30.00;91.90
30473;DHT22;17263;48.160;11.452;2023-08-12T14:05:19;30.00;92.20
30473;DHT22;17263;48.160;11.452;2023-08-12T14:07:46;30.00;92.40
30473;DHT22;17263;48.160;11.452;2023-08-12T14:10:12;30.00;93.00
30473;DHT22;17263;48.160;11.452;2023-08-12T14:12:38;30.10;93.40
30473;DHT22;17263;48.160;11.452;2023-08-12T14:15:04;30.10;93.40
30473;DHT22;17263;48.160;11.452;2023-08-12T14:17:30;30.20;93.20
30473;DHT22;17263;48.160;11.452;2023-08-12T14:19:56;30.30;92.90
30473;DHT22;17263;48.160;11.452;2023-08-12T14:22:24;30.20;93.00
30473;DHT22;17263;48.160;11.452;2023-08-12T14:24:50;30.10;93.10
30473;DHT22;17263;48.160;11.452;2023-08-12T14:27:16;30.00;92.90
30473;DHT22;17263;48.160;11.452;2023-08-12T14:29:46;30.00;93.10
30473;DHT22;17263;48.160;11.452;2023-08-12T14:32:12;30.00;93.30
30473;DHT22;17263;48.160;11.452;2023-08-12T14:34:38;30.00;93.40
30473;DHT22;17263;48.160;11.452;2023-08-12T14:37:05;29.90;93.80
30473;DHT22;17263;48.160;11.452;2023-08-12T14:39:33;29.90;93.80
30473;DHT22;17263;48.160;11.452;2023-08-12T14:41:59;29.90;93.40
30473;DHT22;17263;48.160;11.452;2023-08-12T14:44:25;29.80;93.20
30473;DHT22;17263;48.160;11.452;2023-08-12T14:46:51;29.80;92.70
30473;DHT22;17263;48.160;11.452;2023-08-12T14:49:17;29.60;93.10
30473;DHT22;17263;48.160;11.452;2023-08-12T14:51:43;29.50;93.60
30473;DHT22;17263;48.160;11.452;2023-08-12T14:54:09;29.30;93.70
30473;DHT22;17263;48.160;11.452;2023-08-12T14:56:35;29.20;93.20
30473;DHT22;17263;48.160;11.452;2023-08-12T14:59:01;29.00;93.20
30473;DHT22;17263;48.160;11.452;2023-08-12T15:01:28;28.80;93.00
30473;DHT22;17263;48.160;11.452;2023-08-12T15:03:54;28.70;92.10
30473;DHT22;17263;48.160;11.452;2023-08-12T15:06:21;28.50;92.00
30473;DHT22;17263;48.160;11.452;2023-08-12T15:08:47;28.40;92.00
30473;DHT22;17263;48.160;11.452;2023-08-12T15:11:14;28.30;91.90
30473;DHT22;17263;48.160;11.452;2023-08-12T15:13:40;28.20;91.90
30473;DHT22;17263;48.160;11.452;2023-08-12T15:16:06;28.20;92.00